sensor_id;sensor_type;location;lat;lon;timestamp;pressure;altitude;pressure_sealevel;temperature;humidity
16834;BME280;8533;48.426;10.868;2024-03-08T00:01:54;96011.38;;;0.88;100.00
16834;BME280;8533;48.426;10.868;2024-03-08T00:04:20;95992.22;;;0.69;100.00
16834;BME280;8533;48.426;10.868;2024-03-08T00:06:45;96018.88;;;0.90;100.00
16834;BME280;8533;48.426;10.868;2024-03-08T00:09:11;95965.19;;;0.59;100.00
16834;BME280;8533;48.426;10.868;2024-03-08T00:11:37;96034.25;;;1.04;100.00
16834;BME280;8533;48.426;10.868;2024-03-08T00:14:02;95967.56;;;0.54;100.00
16834;BME280;8533;48.426;10.868;2024-03-08T00:16:32;96027.03;;;0.93;100.00
16834;BME280;8533;48.426;10.868;2024-03-08T00:18:57;96026.59;;;0.90;100.00
16834;BME280;8533;48.426;10.868;2024-03-08T00:21:22;95921.97;;;0.20;100.00
16834;BME280;8533;48.426;10.868;2024-03-08T00:23:48;95996.19;;;0.72;100.00
16834;BME280;8533;48.426;10.868;2024-03-08T00:26:13;96016.88;;;0.85;100.00
16834;BME280;8533;48.426;10.868;2024-03-08T00:28:38;95929.78;;;0.33;100.00
16834;BME280;8533;48.426;10.868;2024-03-08T00:31:03;95890.28;;;0.13;100.00
16834;BME280;8533;48.426;10.868;2024-03-08T00:33:29;95982.91;;;0.68;100.00
16834;BME280;8533;48.426;10.868;2024-03-08T00:35:54;95780.31;;;-0.62;100.00
16834;BME280;8533;48.426;10.868;2024-03-08T00:38:19;96012.09;;;0.82;100.00
16834;BME280;8533;48.426;10.868;2024-03-08T00:40:45;96019.66;;;0.90;100.00
16834;BME280;8533;48.426;10.868;2024-03-08T00:43:10;96003.16;;;0.78;100.00
16834;BME280;8533;48.426;10.868;2024-03-08T00:45:35;95967.19;;;0.57;100.00
16834;BME280;8533;48.426;10.868;2024-03-08T00:48:02;95964.78;;;0.55;100.00
16834;BME280;8533;48.426;10.868;2024-03-08T00:50:28;96001.78;;;0.82;100.00
16834;BME280;8533;48.426;10.868;2024-03-08T00:52:53;96005.75;;;0.78;100.00
16834;BME280;8533;48.426;10.868;2024-03-08T00:55:18;95991.41;;;0.69;100.00
16834;BME280;8533;48.426;10.868;2024-03-08T00:57:44;95961.78;;;0.52;100.00
16834;BME280;8533;48.426;10.868;2024-03-08T01:00:09;95975.31;;;0.60;100.00
16834;BME280;8533;48.426;10.868;2024-03-08T01:02:38;95791.84;;;-0.58;100.00
16834;BME280;8533;48.426;10.868;2024-03-08T01:05:03;95984.44;;;0.63;100.00
16834;BME280;8533;48.426;10.868;2024-03-08T01:07:31;95987.84;;;0.70;100.00
16834;BME280;8533;48.426;10.868;2024-03-08T01:09:56;95982.50;;;0.65;100.00
16834;BME280;8533;48.426;10.868;2024-03-08T01:12:22;95758.03;;;-0.83;100.00
16834;BME280;8533;48.426;10.868;2024-03-08T01:14:47;95983.69;;;0.69;100.00
16834;BME280;8533;48.426;10.868;2024-03-08T01:17:13;96000.13;;;0.68;100.00
16834;BME280;8533;48.426;10.868;2024-03-08T01:19:38;95978.91;;;0.66;100.00
16834;BME280;8533;48.426;10.868;2024-03-08T01:22:03;95968.81;;;0.64;100.00
16834;BME280;8533;48.426;10.868;2024-03-08T01:24:29;95926.66;;;0.37;100.00
16834;BME280;8533;48.426;10.868;2024-03-08T01:26:54;95975.94;;;0.62;100.00
16834;BME280;8533;48.426;10.868;2024-03-08T01:29:19;95971.97;;;0.66;100.00
16834;BME280;8533;48.426;10.868;2024-03-08T01:31:45;95969.63;;;0.65;100.00
16834;BME280;8533;48.426;10.868;2024-03-08T01:34:10;95945.72;;;0.50;100.00
16834;BME280;8533;48.426;10.868;2024-03-08T01:36:35;95947.16;;;0.52;100.00
16834;BME280;8533;48.426;10.868;2024-03-08T01:39:02;95960.66;;;0.61;100.00
16834;BME280;8533;48.426;10.868;2024-03-08T01:41:33;95932.88;;;0.50;100.00
16834;BME280;8533;48.426;10.868;2024-03-08T01:43:58;95947.72;;;0.48;100.00
16834;BME280;8533;48.426;10.868;2024-03-08T01:46:24;95954.91;;;0.59;100.00
16834;BME280;8533;48.426;10.868;2024-03-08T01:48:49;95949.75;;;0.59;100.00
16834;BME280;8533;48.426;10.868;2024-03-08T01:51:15;95922.34;;;0.45;100.00
16834;BME280;8533;48.426;10.868;2024-03-08T01:53:42;95941.06;;;0.60;100.00
16834;BME280;8533;48.426;10.868;2024-03-08T01:56:11;95932.94;;;0.56;100.00
16834;BME280;8533;48.426;10.868;2024-03-08T01:58:38;95925.16;;;0.50;100.00
16834;BME280;8533;48.426;10.868;2024-03-08T02:01:04;95912.06;;;0.45;100.00
16834;BME280;8533;48.426;10.868;2024-03-08T02:03:29;95819.91;;;-0.08;100.00
16834;BME280;8533;48.426;10.868;2024-03-08T02:05:56;95800.66;;;-0.18;100.00
16834;BME280;8533;48.426;10.868;2024-03-08T02:08:24;95904.97;;;0.47;100.00
16834;BME280;8533;48.426;10.868;2024-03-08T02:10:49;95883.47;;;0.33;100.00
16834;BME280;8533;48.426;10.868;2024-03-08T02:13:16;95875.50;;;0.21;100.00
16834;BME280;8533;48.426;10.868;2024-03-08T02:15:58;95879.53;;;0.30;100.00
16834;BME280;8533;48.426;10.868;2024-03-08T02:18:28;95909.72;;;0.50;100.00
16834;BME280;8533;48.426;10.868;2024-03-08T02:20:55;95921.78;;;0.49;100.00
16834;BME280;8533;48.426;10.868;2024-03-08T02:23:20;95894.03;;;0.38;100.00
16834;BME280;8533;48.426;10.868;2024-03-08T02:25:47;95870.00;;;0.24;100.00
16834;BME280;8533;48.426;10.868;2024-03-08T02:28:12;95880.72;;;0.34;100.00
16834;BME280;8533;48.426;10.868;2024-03-08T02:30:38;95873.00;;;0.34;100.00
16834;BME280;8533;48.426;10.868;2024-03-08T02:33:05;95889.50;;;0.40;100.00
16834;BME280;8533;48.426;10.868;2024-03-08T02:35:31;95858.66;;;0.19;100.00
16834;BME280;8533;48.426;10.868;2024-03-08T02:37:56;95532.09;;;-1.95;100.00
16834;BME280;8533;48.426;10.868;2024-03-08T02:40:21;95821.88;;;-0.10;100.00
16834;BME280;8533;48.426;10.868;2024-03-08T02:42:47;95896.34;;;0.33;100.00
16834;BME280;8533;48.426;10.868;2024-03-08T02:45:12;95796.50;;;-0.19;100.00
16834;BME280;8533;48.426;10.868;2024-03-08T02:47:38;95876.66;;;0.19;100.00
16834;BME280;8533;48.426;10.868;2024-03-08T02:50:04;95868.75;;;0.20;100.00
16834;BME280;8533;48.426;10.868;2024-03-08T02:52:30;95888.69;;;0.40;100.00
16834;BME280;8533;48.426;10.868;2024-03-08T02:54:56;95852.31;;;0.15;100.00
16834;BME280;8533;48.426;10.868;2024-03-08T02:57:21;95873.53;;;0.23;100.00
16834;BME280;8533;48.426;10.868;2024-03-08T02:59:47;95834.03;;;0.03;100.00
16834;BME280;8533;48.426;10.868;2024-03-08T03:02:12;95884.66;;;0.30;100.00
16834;BME280;8533;48.426;10.868;2024-03-08T03:04:40;95879.88;;;0.27;100.00
16834;BME280;8533;48.426;10.868;2024-03-08T03:07:05;95826.63;;;-0.07;100.00
16834;BME280;8533;48.426;10.868;2024-03-08T03:09:30;95864.84;;;0.24;100.00
16834;BME280;8533;48.426;10.868;2024-03-08T03:11:58;95842.97;;;0.07;100.00
16834;BME280;8533;48.426;10.868;2024-03-08T03:14:23;95712.06;;;-0.78;100.00
16834;BME280;8533;48.426;10.868;2024-03-08T03:16:49;95799.81;;;-0.25;100.00
16834;BME280;8533;48.426;10.868;2024-03-08T03:19:15;95784.47;;;-0.40;100.00
16834;BME280;8533;48.426;10.868;2024-03-08T03:21:40;95848.47;;;0.04;100.00
16834;BME280;8533;48.426;10.868;2024-03-08T03:24:08;95782.50;;;-0.38;100.00
16834;BME280;8533;48.426;10.868;2024-03-08T03:26:36;95863.53;;;0.07;100.00
16834;BME280;8533;48.426;10.868;2024-03-08T03:29:04;95848.25;;;-0.01;100.00
16834;BME280;8533;48.426;10.868;2024-03-08T03:31:31;95860.56;;;0.10;100.00
16834;BME280;8533;48.426;10.868;2024-03-08T03:33:56;95837.66;;;-0.13;100.00
16834;BME280;8533;48.426;10.868;2024-03-08T03:36:27;95839.75;;;-0.02;100.00
16834;BME280;8533;48.426;10.868;2024-03-08T03:38:53;95868.69;;;0.07;100.00
16834;BME280;8533;48.426;10.868;2024-03-08T03:41:29;95829.41;;;-0.08;100.00
16834;BME280;8533;48.426;10.868;2024-03-08T03:43:55;95821.72;;;-0.08;100.00
16834;BME280;8533;48.426;10.868;2024-03-08T03:46:20;95799.69;;;-0.17;100.00
16834;BME280;8533;48.426;10.868;2024-03-08T03:48:45;95831.47;;;0.03;100.00
16834;BME280;8533;48.426;10.868;2024-03-08T03:51:11;95798.09;;;-0.18;100.00
16834;BME280;8533;48.426;10.868;2024-03-08T03:53:37;95824.28;;;-0.08;100.00
16834;BME280;8533;48.426;10.868;2024-03-08T03:56:03;95751.59;;;-0.51;100.00
16834;BME280;8533;48.426;10.868;2024-03-08T03:58:32;95819.00;;;0.00;100.00
16834;BME280;8533;48.426;10.868;2024-03-08T04:00:57;95782.19;;;-0.28;100.00
16834;BME280;8533;48.426;10.868;2024-03-08T04:03:23;95800.88;;;-0.13;100.00
16834;BME280;8533;48.426;10.868;2024-03-08T04:05:48;95843.94;;;0.06;100.00
16834;BME280;8533;48.426;10.868;2024-03-08T04:08:13;95822.88;;;-0.11;100.00
16834;BME280;8533;48.426;10.868;2024-03-08T04:10:39;95792.34;;;-0.20;100.00
16834;BME280;8533;48.426;10.868;2024-03-08T04:13:07;95850.47;;;0.09;100.00
16834;BME280;8533;48.426;10.868;2024-03-08T04:15:32;95826.88;;;-0.02;100.00
16834;BME280;8533;48.426;10.868;2024-03-08T04:17:57;95786.34;;;-0.27;100.00
16834;BME280;8533;48.426;10.868;2024-03-08T04:20:25;95828.28;;;0.01;100.00
16834;BME280;8533;48.426;10.868;2024-03-08T04:22:50;95768.69;;;-0.37;100.00
16834;BME280;8533;48.426;10.868;2024-03-08T04:25:16;95593.47;;;-1.44;100.00
16834;BME280;8533;48.426;10.868;2024-03-08T04:27:41;95841.09;;;0.22;100.00
16834;BME280;8533;48.426;10.868;2024-03-08T04:30:07;95812.53;;;0.11;100.00
16834;BME280;8533;48.426;10.868;2024-03-08T04:32:32;95817.34;;;0.20;100.00
16834;BME280;8533;48.426;10.868;2024-03-08T04:34:58;95603.63;;;-1.08;100.00
16834;BME280;8533;48.426;10.868;2024-03-08T04:37:23;95830.28;;;0.33;100.00
16834;BME280;8533;48.426;10.868;2024-03-08T04:39:50;95801.13;;;0.20;100.00
16834;BME280;8533;48.426;10.868;2024-03-08T04:42:15;95793.97;;;0.15;100.00
16834;BME280;8533;48.426;10.868;2024-03-08T04:44:43;95735.22;;;-0.16;100.00
16834;BME280;8533;48.426;10.868;2024-03-08T04:47:08;95741.59;;;-0.12;100.00
16834;BME280;8533;48.426;10.868;2024-03-08T04:49:34;95819.66;;;0.43;100.00
16834;BME280;8533;48.426;10.868;2024-03-08T04:52:01;95628.13;;;-0.78;100.00
16834;BME280;8533;48.426;10.868;2024-03-08T04:54:27;95568.03;;;-1.18;100.00
16834;BME280;8533;48.426;10.868;2024-03-08T04:56:53;95808.72;;;0.34;100.00
16834;BME280;8533;48.426;10.868;2024-03-08T04:59:19;95824.81;;;0.50;100.00
16834;BME280;8533;48.426;10.868;2024-03-08T05:01:44;95814.31;;;0.45;100.00
16834;BME280;8533;48.426;10.868;2024-03-08T05:04:09;95658.34;;;-0.52;100.00
16834;BME280;8533;48.426;10.868;2024-03-08T05:06:35;95829.00;;;0.51;100.00
16834;BME280;8533;48.426;10.868;2024-03-08T05:09:01;95791.31;;;0.36;100.00
16834;BME280;8533;48.426;10.868;2024-03-08T05:11:39;95791.25;;;0.23;100.00
16834;BME280;8533;48.426;10.868;2024-03-08T05:14:04;95820.69;;;0.49;100.00
16834;BME280;8533;48.426;10.868;2024-03-08T05:16:29;95815.53;;;0.49;100.00
16834;BME280;8533;48.426;10.868;2024-03-08T05:18:55;95736.53;;;0.02;100.00
16834;BME280;8533;48.426;10.868;2024-03-08T05:21:21;95789.81;;;0.14;100.00
16834;BME280;8533;48.426;10.868;2024-03-08T05:23:47;95805.41;;;0.41;100.00
16834;BME280;8533;48.426;10.868;2024-03-08T05:26:12;95696.25;;;-0.26;100.00
16834;BME280;8533;48.426;10.868;2024-03-08T05:28:38;95809.03;;;0.53;100.00
16834;BME280;8533;48.426;10.868;2024-03-08T05:31:03;95745.88;;;0.09;100.00
16834;BME280;8533;48.426;10.868;2024-03-08T05:33:28;95781.41;;;0.33;100.00
16834;BME280;8533;48.426;10.868;2024-03-08T05:35:54;95817.72;;;0.52;100.00
16834;BME280;8533;48.426;10.868;2024-03-08T05:38:19;95821.88;;;0.53;100.00
16834;BME280;8533;48.426;10.868;2024-03-08T05:40:45;95816.75;;;0.59;100.00
16834;BME280;8533;48.426;10.868;2024-03-08T05:43:10;95823.50;;;0.60;100.00
16834;BME280;8533;48.426;10.868;2024-03-08T05:45:36;95791.34;;;0.43;100.00
16834;BME280;8533;48.426;10.868;2024-03-08T05:48:02;95818.72;;;0.57;100.00
16834;BME280;8533;48.426;10.868;2024-03-08T05:50:27;95730.66;;;0.08;100.00
16834;BME280;8533;48.426;10.868;2024-03-08T05:52:52;95814.81;;;0.61;100.00
16834;BME280;8533;48.426;10.868;2024-03-08T05:55:18;95687.97;;;-0.21;100.00
16834;BME280;8533;48.426;10.868;2024-03-08T05:57:43;95808.69;;;0.62;100.00
16834;BME280;8533;48.426;10.868;2024-03-08T06:00:11;95774.53;;;0.41;100.00
16834;BME280;8533;48.426;10.868;2024-03-08T06:02:37;95813.66;;;0.70;100.00
16834;BME280;8533;48.426;10.868;2024-03-08T06:05:09;95781.09;;;0.50;100.00
16834;BME280;8533;48.426;10.868;2024-03-08T06:07:38;95811.66;;;0.66;100.00
16834;BME280;8533;48.426;10.868;2024-03-08T06:10:07;95805.34;;;0.68;100.00
16834;BME280;8533;48.426;10.868;2024-03-08T06:12:35;95813.84;;;0.69;100.00
16834;BME280;8533;48.426;10.868;2024-03-08T06:15:11;95783.75;;;0.63;100.00
16834;BME280;8533;48.426;10.868;2024-03-08T06:17:40;95808.69;;;0.69;100.00
16834;BME280;8533;48.426;10.868;2024-03-08T06:20:06;95729.16;;;0.33;100.00
16834;BME280;8533;48.426;10.868;2024-03-08T06:22:37;95653.22;;;-0.17;100.00
16834;BME280;8533;48.426;10.868;2024-03-08T06:25:03;95772.22;;;0.59;100.00
16834;BME280;8533;48.426;10.868;2024-03-08T06:27:28;95779.16;;;0.58;100.00
16834;BME280;8533;48.426;10.868;2024-03-08T06:29:54;95779.94;;;0.59;100.00
16834;BME280;8533;48.426;10.868;2024-03-08T06:32:19;95778.97;;;0.60;100.00
16834;BME280;8533;48.426;10.868;2024-03-08T06:34:44;95804.97;;;0.78;100.00
16834;BME280;8533;48.426;10.868;2024-03-08T06:37:09;95748.59;;;0.42;100.00
16834;BME280;8533;48.426;10.868;2024-03-08T06:39:35;95797.06;;;0.73;100.00
16834;BME280;8533;48.426;10.868;2024-03-08T06:42:01;95743.88;;;0.46;100.00
16834;BME280;8533;48.426;10.868;2024-03-08T06:44:26;95787.94;;;0.70;100.00
16834;BME280;8533;48.426;10.868;2024-03-08T06:46:52;95792.72;;;0.80;100.00
16834;BME280;8533;48.426;10.868;2024-03-08T06:49:17;95779.81;;;0.73;100.00
16834;BME280;8533;48.426;10.868;2024-03-08T06:51:42;95727.63;;;0.38;100.00
16834;BME280;8533;48.426;10.868;2024-03-08T06:54:08;95806.00;;;0.90;100.00
16834;BME280;8533;48.426;10.868;2024-03-08T06:56:36;95754.19;;;0.52;100.00
16834;BME280;8533;48.426;10.868;2024-03-08T06:59:02;95775.84;;;0.71;100.00
16834;BME280;8533;48.426;10.868;2024-03-08T07:01:28;95782.44;;;0.80;100.00
16834;BME280;8533;48.426;10.868;2024-03-08T07:03:57;95770.13;;;0.82;100.00
16834;BME280;8533;48.426;10.868;2024-03-08T07:06:22;95770.31;;;0.74;100.00
16834;BME280;8533;48.426;10.868;2024-03-08T07:08:47;95814.59;;;1.10;100.00
16834;BME280;8533;48.426;10.868;2024-03-08T07:11:14;95806.69;;;1.05;100.00
16834;BME280;8533;48.426;10.868;2024-03-08T07:13:43;95716.78;;;0.50;100.00
16834;BME280;8533;48.426;10.868;2024-03-08T07:16:09;95678.91;;;0.24;100.00
16834;BME280;8533;48.426;10.868;2024-03-08T07:18:35;95784.47;;;1.04;100.00
16834;BME280;8533;48.426;10.868;2024-03-08T07:21:04;95711.63;;;0.50;100.00
16834;BME280;8533;48.426;10.868;2024-03-08T07:23:30;95787.47;;;1.14;100.00
16834;BME280;8533;48.426;10.868;2024-03-08T07:26:33;95750.59;;;0.94;100.00
16834;BME280;8533;48.426;10.868;2024-03-08T07:28:59;95738.44;;;0.75;100.00
16834;BME280;8533;48.426;10.868;2024-03-08T07:31:25;95771.56;;;0.91;100.00
16834;BME280;8533;48.426;10.868;2024-03-08T07:33:54;95790.44;;;1.11;100.00
16834;BME280;8533;48.426;10.868;2024-03-08T07:36:19;95793.97;;;0.97;100.00
16834;BME280;8533;48.426;10.868;2024-03-08T07:38:44;95704.47;;;0.38;100.00
16834;BME280;8533;48.426;10.868;2024-03-08T07:41:12;95791.81;;;1.14;100.00
16834;BME280;8533;48.426;10.868;2024-03-08T07:43:38;95692.88;;;0.56;100.00
16834;BME280;8533;48.426;10.868;2024-03-08T07:46:03;95771.38;;;1.06;100.00
16834;BME280;8533;48.426;10.868;2024-03-08T07:48:28;95551.66;;;-0.48;100.00
16834;BME280;8533;48.426;10.868;2024-03-08T07:50:55;95803.13;;;1.13;100.00
16834;BME280;8533;48.426;10.868;2024-03-08T07:53:21;95787.09;;;1.24;100.00
16834;BME280;8533;48.426;10.868;2024-03-08T07:55:46;95786.47;;;1.22;100.00
16834;BME280;8533;48.426;10.868;2024-03-08T07:58:12;95698.41;;;0.59;100.00
16834;BME280;8533;48.426;10.868;2024-03-08T08:00:38;95698.78;;;0.50;100.00
16834;BME280;8533;48.426;10.868;2024-03-08T08:03:04;95715.63;;;0.65;100.00
16834;BME280;8533;48.426;10.868;2024-03-08T08:05:30;95748.91;;;0.73;100.00
16834;BME280;8533;48.426;10.868;2024-03-08T08:07:57;95754.75;;;0.95;100.00
16834;BME280;8533;48.426;10.868;2024-03-08T08:10:22;95765.47;;;1.05;100.00
16834;BME280;8533;48.426;10.868;2024-03-08T08:12:50;95770.81;;;1.10;100.00
16834;BME280;8533;48.426;10.868;2024-03-08T08:15:15;95705.78;;;0.82;100.00
16834;BME280;8533;48.426;10.868;2024-03-08T08:17:44;95767.88;;;1.27;100.00
16834;BME280;8533;48.426;10.868;2024-03-08T08:20:13;95775.00;;;1.25;100.00
16834;BME280;8533;48.426;10.868;2024-03-08T08:22:42;95755.97;;;1.12;100.00
16834;BME280;8533;48.426;10.868;2024-03-08T08:25:10;95702.41;;;0.75;100.00
16834;BME280;8533;48.426;10.868;2024-03-08T08:27:46;95777.38;;;1.26;100.00
16834;BME280;8533;48.426;10.868;2024-03-08T08:30:12;95776.59;;;1.26;100.00
16834;BME280;8533;48.426;10.868;2024-03-08T08:32:38;95729.81;;;1.15;100.00
16834;BME280;8533;48.426;10.868;2024-03-08T08:35:07;95771.69;;;1.50;100.00
16834;BME280;8533;48.426;10.868;2024-03-08T08:37:38;95760.56;;;1.57;100.00
16834;BME280;8533;48.426;10.868;2024-03-08T08:40:04;95761.97;;;1.72;100.00
16834;BME280;8533;48.426;10.868;2024-03-08T08:42:34;95730.06;;;1.60;100.00
16834;BME280;8533;48.426;10.868;2024-03-08T08:45:00;95755.38;;;1.96;100.00
16834;BME280;8533;48.426;10.868;2024-03-08T08:47:26;95731.81;;;1.92;100.00
16834;BME280;8533;48.426;10.868;2024-03-08T08:49:51;95704.88;;;1.49;100.00
16834;BME280;8533;48.426;10.868;2024-03-08T08:52:17;95468.41;;;0.01;100.00
16834;BME280;8533;48.426;10.868;2024-03-08T08:54:43;95637.91;;;1.09;100.00
16834;BME280;8533;48.426;10.868;2024-03-08T08:57:09;95744.72;;;1.86;100.00
16834;BME280;8533;48.426;10.868;2024-03-08T08:59:35;95738.56;;;1.80;100.00
16834;BME280;8533;48.426;10.868;2024-03-08T09:02:05;95698.91;;;1.55;100.00
16834;BME280;8533;48.426;10.868;2024-03-08T09:04:30;95691.56;;;1.85;100.00
16834;BME280;8533;48.426;10.868;2024-03-08T09:06:56;95722.25;;;2.06;100.00
16834;BME280;8533;48.426;10.868;2024-03-08T09:09:22;95666.78;;;1.84;100.00
16834;BME280;8533;48.426;10.868;2024-03-08T09:11:47;95636.22;;;1.81;100.00
16834;BME280;8533;48.426;10.868;2024-03-08T09:14:12;95729.28;;;2.50;100.00
16834;BME280;8533;48.426;10.868;2024-03-08T09:16:39;95717.16;;;2.44;100.00
16834;BME280;8533;48.426;10.868;2024-03-08T09:19:04;95713.34;;;2.60;100.00
16834;BME280;8533;48.426;10.868;2024-03-08T09:21:32;95685.31;;;2.25;100.00
16834;BME280;8533;48.426;10.868;2024-03-08T09:23:57;95632.28;;;1.78;100.00
16834;BME280;8533;48.426;10.868;2024-03-08T09:26:23;95598.25;;;1.50;100.00
16834;BME280;8533;48.426;10.868;2024-03-08T09:28:49;95621.78;;;1.73;100.00
16834;BME280;8533;48.426;10.868;2024-03-08T09:31:14;95718.16;;;2.50;100.00
16834;BME280;8533;48.426;10.868;2024-03-08T09:33:42;95171.22;;;-1.10;100.00
16834;BME280;8533;48.426;10.868;2024-03-08T09:36:07;95732.56;;;2.71;100.00
16834;BME280;8533;48.426;10.868;2024-03-08T09:38:33;95678.34;;;3.02;100.00
16834;BME280;8533;48.426;10.868;2024-03-08T09:40:59;95499.78;;;2.49;100.00
16834;BME280;8533;48.426;10.868;2024-03-08T09:43:26;95495.28;;;2.87;100.00
16834;BME280;8533;48.426;10.868;2024-03-08T09:45:53;95709.53;;;4.43;100.00
16834;BME280;8533;48.426;10.868;2024-03-08T09:48:20;95645.97;;;4.29;100.00
16834;BME280;8533;48.426;10.868;2024-03-08T09:50:47;95714.72;;;4.73;100.00
16834;BME280;8533;48.426;10.868;2024-03-08T09:53:13;95559.88;;;3.85;100.00
16834;BME280;8533;48.426;10.868;2024-03-08T09:55:38;95703.13;;;4.93;100.00
16834;BME280;8533;48.426;10.868;2024-03-08T09:58:12;95630.56;;;4.15;100.00
16834;BME280;8533;48.426;10.868;2024-03-08T10:00:47;95692.31;;;4.48;100.00
16834;BME280;8533;48.426;10.868;2024-03-08T10:03:12;95688.75;;;3.70;100.00
16834;BME280;8533;48.426;10.868;2024-03-08T10:05:39;95698.34;;;3.88;100.00
16834;BME280;8533;48.426;10.868;2024-03-08T10:08:05;95683.72;;;3.75;100.00
16834;BME280;8533;48.426;10.868;2024-03-08T10:10:33;95465.22;;;2.25;100.00
16834;BME280;8533;48.426;10.868;2024-03-08T10:12:59;95690.00;;;3.86;100.00
16834;BME280;8533;48.426;10.868;2024-03-08T10:15:27;95505.38;;;2.71;100.00
16834;BME280;8533;48.426;10.868;2024-03-08T10:17:55;95396.19;;;1.96;100.00
16834;BME280;8533;48.426;10.868;2024-03-08T10:20:21;95692.50;;;3.74;100.00
16834;BME280;8533;48.426;10.868;2024-03-08T10:22:49;95679.25;;;4.07;100.00
16834;BME280;8533;48.426;10.868;2024-03-08T10:25:14;95616.19;;;3.47;100.00
16834;BME280;8533;48.426;10.868;2024-03-08T10:27:39;95662.41;;;3.98;100.00
16834;BME280;8533;48.426;10.868;2024-03-08T10:30:13;95422.78;;;2.89;100.00
16834;BME280;8533;48.426;10.868;2024-03-08T10:32:39;95649.25;;;4.54;100.00
16834;BME280;8533;48.426;10.868;2024-03-08T10:35:09;95634.94;;;4.51;100.00
16834;BME280;8533;48.426;10.868;2024-03-08T10:37:50;95660.66;;;4.94;100.00
16834;BME280;8533;48.426;10.868;2024-03-08T10:40:24;95657.09;;;5.19;100.00
16834;BME280;8533;48.426;10.868;2024-03-08T10:45:22;95446.22;;;4.43;100.00
16834;BME280;8533;48.426;10.868;2024-03-08T10:47:49;95630.28;;;5.60;100.00
16834;BME280;8533;48.426;10.868;2024-03-08T10:50:20;95638.94;;;5.30;100.00
16834;BME280;8533;48.426;10.868;2024-03-08T10:52:50;95559.81;;;5.28;100.00
16834;BME280;8533;48.426;10.868;2024-03-08T10:55:17;95379.25;;;4.35;100.00
16834;BME280;8533;48.426;10.868;2024-03-08T10:57:44;95648.13;;;6.43;100.00
16834;BME280;8533;48.426;10.868;2024-03-08T11:00:10;95584.06;;;6.20;100.00
16834;BME280;8533;48.426;10.868;2024-03-08T11:02:37;95631.75;;;6.42;100.00
16834;BME280;8533;48.426;10.868;2024-03-08T11:05:03;95633.50;;;6.25;100.00
16834;BME280;8533;48.426;10.868;2024-03-08T11:07:33;95686.19;;;6.77;100.00
16834;BME280;8533;48.426;10.868;2024-03-08T11:10:02;95558.09;;;6.20;100.00
16834;BME280;8533;48.426;10.868;2024-03-08T11:12:36;95485.81;;;5.60;95.86
16834;BME280;8533;48.426;10.868;2024-03-08T11:15:10;95669.44;;;7.13;93.59
16834;BME280;8533;48.426;10.868;2024-03-08T11:20:09;95646.81;;;7.47;90.59
16834;BME280;8533;48.426;10.868;2024-03-08T11:22:40;95577.06;;;7.44;88.53
16834;BME280;8533;48.426;10.868;2024-03-08T11:25:09;95591.66;;;7.84;85.00
16834;BME280;8533;48.426;10.868;2024-03-08T11:27:37;95594.94;;;7.41;87.82
16834;BME280;8533;48.426;10.868;2024-03-08T11:30:04;95612.50;;;7.00;89.86
16834;BME280;8533;48.426;10.868;2024-03-08T11:32:37;95601.38;;;7.55;88.24
16834;BME280;8533;48.426;10.868;2024-03-08T11:35:07;95597.88;;;7.83;86.15
16834;BME280;8533;48.426;10.868;2024-03-08T11:37:34;95589.28;;;7.44;88.61
16834;BME280;8533;48.426;10.868;2024-03-08T11:40:11;95574.22;;;7.46;90.94
16834;BME280;8533;48.426;10.868;2024-03-08T11:42:39;95557.81;;;7.45;89.64
16834;BME280;8533;48.426;10.868;2024-03-08T11:45:08;95581.00;;;7.85;87.67
16834;BME280;8533;48.426;10.868;2024-03-08T11:47:34;95562.34;;;7.93;87.30
16834;BME280;8533;48.426;10.868;2024-03-08T11:50:00;95559.22;;;7.53;88.79
16834;BME280;8533;48.426;10.868;2024-03-08T11:52:28;95580.56;;;7.55;90.67
16834;BME280;8533;48.426;10.868;2024-03-08T11:54:54;95575.03;;;8.12;89.36
16834;BME280;8533;48.426;10.868;2024-03-08T11:57:26;95464.63;;;7.64;87.96
16834;BME280;8533;48.426;10.868;2024-03-08T11:59:55;95554.72;;;8.57;84.68
16834;BME280;8533;48.426;10.868;2024-03-08T12:02:22;95499.34;;;8.45;82.24
16834;BME280;8533;48.426;10.868;2024-03-08T12:04:56;95558.81;;;9.07;79.57
16834;BME280;8533;48.426;10.868;2024-03-08T12:07:22;95547.00;;;8.40;80.24
16834;BME280;8533;48.426;10.868;2024-03-08T12:10:14;95553.34;;;8.76;79.61
16834;BME280;8533;48.426;10.868;2024-03-08T12:12:44;95554.19;;;8.55;82.13
16834;BME280;8533;48.426;10.868;2024-03-08T12:15:09;95535.38;;;9.12;78.84
16834;BME280;8533;48.426;10.868;2024-03-08T12:17:37;95521.28;;;9.13;77.38
16834;BME280;8533;48.426;10.868;2024-03-08T12:22:43;95532.69;;;9.91;74.34
16834;BME280;8533;48.426;10.868;2024-03-08T12:25:11;95537.56;;;10.40;73.17
16834;BME280;8533;48.426;10.868;2024-03-08T12:27:40;95508.66;;;9.89;74.61
16834;BME280;8533;48.426;10.868;2024-03-08T12:30:20;95466.34;;;8.88;72.30
16834;BME280;8533;48.426;10.868;2024-03-08T12:32:56;95487.63;;;8.43;77.45
16834;BME280;8533;48.426;10.868;2024-03-08T12:35:23;95518.34;;;8.99;77.87
16834;BME280;8533;48.426;10.868;2024-03-08T12:37:52;95239.88;;;7.75;77.53
16834;BME280;8533;48.426;10.868;2024-03-08T12:40:18;95511.41;;;9.20;76.28
16834;BME280;8533;48.426;10.868;2024-03-08T12:42:45;95453.19;;;8.72;78.18
16834;BME280;8533;48.426;10.868;2024-03-08T12:45:15;95487.06;;;9.51;75.70
16834;BME280;8533;48.426;10.868;2024-03-08T12:47:40;95493.25;;;9.98;72.11
16834;BME280;8533;48.426;10.868;2024-03-08T12:50:08;95504.13;;;10.42;69.54
16834;BME280;8533;48.426;10.868;2024-03-08T12:52:34;95492.09;;;10.56;69.77
16834;BME280;8533;48.426;10.868;2024-03-08T12:54:59;95205.56;;;8.30;69.01
16834;BME280;8533;48.426;10.868;2024-03-08T12:57:28;95481.06;;;10.18;70.29
16834;BME280;8533;48.426;10.868;2024-03-08T12:59:54;95270.50;;;8.89;71.25
16834;BME280;8533;48.426;10.868;2024-03-08T13:02:19;95461.09;;;9.87;71.33
16834;BME280;8533;48.426;10.868;2024-03-08T13:04:46;95395.69;;;9.46;69.84
16834;BME280;8533;48.426;10.868;2024-03-08T13:07:18;95475.41;;;9.74;71.17